Time;durP1;ratioP1;P1;durP2;ratioP2;P2;SDS_P1;SDS_P2;PMS_P1;PMS_P2;Temp;Humidity;BMP_temperature;BMP_pressure;BME280_temperature;BME280_humidity;BME280_pressure;Samples;Min_cycle;Max_cycle;Signal;HPM_P1;HPM_P2
2021/08/20 00:00:10;;;;;;;11.02;6.57;;;13.80;99.90;;;;;;4908044;29;20040;-56
2021/08/20 00:02:36;;;;;;;14.30;7.80;;;13.80;99.90;;;;;;4909895;29;20031;-57
2021/08/20 00:05:02;;;;;;;12.27;7.80;;;13.70;99.90;;;;;;4903186;29;20025;-60
2021/08/20 00:07:27;;;;;;;15.20;8.88;;;13.70;99.90;;;;;;4901795;29;20024;-58
2021/08/20 00:10:00;;;;;;;13.95;9.82;;;13.80;99.90;;;;;;4901724;29;20388;-58
2021/08/20 00:12:26;;;;;;;14.45;9.05;;;13.90;99.90;;;;;;4903998;29;20028;-58
2021/08/20 00:14:55;;;;;;;16.05;9.20;;;14.00;99.90;;;;;;4918414;29;20079;-60
2021/08/20 00:17:21;;;;;;;20.77;9.35;;;14.00;99.90;;;;;;4915457;29;20055;-56
2021/08/20 00:19:47;;;;;;;12.45;8.52;;;14.10;99.90;;;;;;4925316;29;20079;-57
2021/08/20 00:22:13;;;;;;;13.90;8.38;;;14.20;99.90;;;;;;4921233;29;20044;-60
2021/08/20 00:24:38;;;;;;;11.45;8.57;;;14.30;99.90;;;;;;4918716;29;20043;-58
2021/08/20 00:27:04;;;;;;;20.20;8.90;;;14.40;99.90;;;;;;4923383;29;20032;-56
2021/08/20 00:29:30;;;;;;;11.18;7.90;;;14.40;99.90;;;;;;4915093;29;20095;-58
2021/08/20 00:31:55;;;;;;;11.90;8.80;;;14.40;99.90;;;;;;4919748;29;20039;-57
2021/08/20 00:34:21;;;;;;;12.48;7.57;;;14.30;99.90;;;;;;4920848;29;20032;-58
2021/08/20 00:36:47;;;;;;;13.80;8.23;;;14.30;99.90;;;;;;4924927;29;20051;-55
2021/08/20 00:39:13;;;;;;;13.20;7.75;;;14.20;99.90;;;;;;4922277;29;20030;-60
2021/08/20 00:41:43;;;;;;;11.48;8.10;;;14.10;99.90;;;;;;4917643;29;20036;-58
2021/08/20 00:44:08;;;;;;;11.95;7.38;;;14.10;99.90;;;;;;4918862;29;20031;-59
2021/08/20 00:46:34;;;;;;;13.55;8.25;;;14.00;99.90;;;;;;4923805;29;20427;-60
2021/08/20 00:49:00;;;;;;;11.88;8.90;;;14.00;99.90;;;;;;4912075;29;20058;-56
2021/08/20 00:51:30;;;;;;;10.32;7.95;;;13.90;99.90;;;;;;4910044;29;20518;-57
2021/08/20 00:53:56;;;;;;;14.20;9.45;;;13.90;99.90;;;;;;4910659;29;20411;-57
2021/08/20 00:56:23;;;;;;;12.82;8.85;;;13.80;99.90;;;;;;4912481;29;20032;-59
2021/08/20 00:58:49;;;;;;;13.48;8.48;;;13.80;99.90;;;;;;4911985;29;20027;-57
2021/08/20 01:01:15;;;;;;;13.68;8.95;;;13.80;99.90;;;;;;4912971;29;20388;-58
2021/08/20 01:03:41;;;;;;;16.13;9.65;;;13.80;99.90;;;;;;4920965;29;20034;-51
2021/08/20 01:06:07;;;;;;;16.13;10.07;;;13.80;99.90;;;;;;4912965;29;20059;-60
2021/08/20 01:08:35;;;;;;;13.48;8.55;;;13.80;99.90;;;;;;4913925;29;20396;-60
2021/08/20 01:11:03;;;;;;;18.73;9.38;;;13.90;99.90;;;;;;4910439;29;20028;-58
2021/08/20 01:13:34;;;;;;;11.80;8.57;;;13.80;99.90;;;;;;4916640;29;20039;-60
2021/08/20 01:16:01;;;;;;;12.70;8.63;;;13.80;99.90;;;;;;4914002;29;20031;-56
2021/08/20 01:18:36;;;;;;;12.02;9.25;;;13.80;99.90;;;;;;4911555;29;20031;-59
2021/08/20 01:21:17;;;;;;;11.27;8.88;;;13.80;99.90;;;;;;4913974;29;20440;-59
2021/08/20 01:24:09;;;;;;;15.98;9.30;;;13.90;99.90;;;;;;4918286;29;20501;-55
2021/08/20 01:26:35;;;;;;;13.50;9.38;;;13.80;99.90;;;;;;4917190;29;20056;-53
2021/08/20 01:29:01;;;;;;;13.23;10.07;;;13.80;99.90;;;;;;4914181;29;20607;-57
2021/08/20 01:31:26;;;;;;;13.88;9.50;;;13.80;99.90;;;;;;4918418;29;20031;-60
2021/08/20 01:33:54;;;;;;;15.40;9.80;;;13.80;99.90;;;;;;4914739;29;20036;-58
2021/08/20 01:36:20;;;;;;;16.00;10.80;;;13.90;99.90;;;;;;4913726;29;20031;-57
2021/08/20 01:38:56;;;;;;;13.70;9.95;;;13.90;99.90;;;;;;4916810;29;20035;-57
2021/08/20 01:41:25;;;;;;;13.75;9.68;;;14.00;99.90;;;;;;4915497;29;20043;-57
2021/08/20 01:43:51;;;;;;;13.57;10.10;;;14.00;99.90;;;;;;4913930;29;20039;-58
2021/08/20 01:46:18;;;;;;;14.07;9.75;;;14.00;99.90;;;;;;4913926;29;20079;-58
2021/08/20 01:48:51;;;;;;;16.08;8.85;;;14.10;99.90;;;;;;4913538;29;20036;-59
2021/08/20 01:51:17;;;;;;;14.75;9.27;;;14.10;99.90;;;;;;4912007;29;20484;-55
2021/08/20 01:53:44;;;;;;;13.02;8.85;;;14.10;99.90;;;;;;4908702;29;20492;-58
2021/08/20 01:56:17;;;;;;;17.52;9.55;;;14.10;99.90;;;;;;4914187;29;20031;-58
2021/08/20 01:58:43;;;;;;;12.85;8.40;;;14.10;99.90;;;;;;4915299;29;20056;-56
2021/08/20 02:01:09;;;;;;;10.10;8.88;;;14.10;99.90;;;;;;4917226;29;22453;-57
2021/08/20 02:03:35;;;;;;;13.38;8.43;;;14.10;99.90;;;;;;4923953;29;20407;-57
2021/08/20 02:06:00;;;;;;;11.35;8.48;;;14.10;99.90;;;;;;4923924;29;20103;-56
2021/08/20 02:08:26;;;;;;;17.88;9.25;;;14.10;99.90;;;;;;4927411;29;20120;-56
2021/08/20 02:10:55;;;;;;;12.73;8.75;;;14.10;99.90;;;;;;4924090;29;20027;-58
2021/08/20 02:13:21;;;;;;;13.18;8.65;;;14.10;99.90;;;;;;4917821;29;20038;-56
2021/08/20 02:15:47;;;;;;;14.55;8.45;;;14.10;99.90;;;;;;4922913;29;20036;-58
2021/08/20 02:18:12;;;;;;;13.02;8.10;;;14.10;99.90;;;;;;4918731;29;20024;-58
2021/08/20 02:20:40;;;;;;;12.73;8.10;;;14.10;99.90;;;;;;4930164;29;20092;-57
2021/08/20 02:23:06;;;;;;;11.05;8.60;;;14.10;99.90;;;;;;4921175;29;20027;-58
2021/08/20 02:25:32;;;;;;;10.57;7.93;;;14.10;99.90;;;;;;4911298;29;20035;-52
2021/08/20 02:27:57;;;;;;;10.07;7.90;;;14.10;99.90;;;;;;4912346;29;20036;-60
2021/08/20 02:30:23;;;;;;;15.88;11.35;;;14.10;99.90;;;;;;4917190;29;20036;-60
2021/08/20 02:32:49;;;;;;;14.98;8.45;;;14.10;99.90;;;;;;4913229;29;20028;-59
2021/08/20 02:35:14;;;;;;;11.95;8.52;;;14.10;99.90;;;;;;4914486;29;20039;-57
2021/08/20 02:37:40;;;;;;;11.70;8.13;;;14.20;99.90;;;;;;4915157;29;20035;-57
2021/08/20 02:40:06;;;;;;;13.88;9.10;;;14.20;99.90;;;;;;4913590;29;20032;-58
2021/08/20 02:42:31;;;;;;;16.05;9.68;;;14.20;99.90;;;;;;4915791;29;20036;-56
2021/08/20 02:44:57;;;;;;;13.55;9.80;;;14.20;99.90;;;;;;4912644;29;20035;-57
2021/08/20 02:47:23;;;;;;;15.48;9.43;;;14.20;99.90;;;;;;4914204;29;20032;-58
2021/08/20 02:49:48;;;;;;;14.55;9.25;;;14.20;99.90;;;;;;4913362;29;20431;-54
2021/08/20 02:52:14;;;;;;;17.02;9.65;;;14.20;99.90;;;;;;4917258;29;20044;-59
2021/08/20 02:54:39;;;;;;;17.27;8.60;;;14.20;99.90;;;;;;4917821;29;20036;-56
2021/08/20 02:57:05;;;;;;;14.23;9.88;;;14.20;99.90;;;;;;4913976;29;20032;-53
2021/08/20 02:59:31;;;;;;;18.60;12.27;;;14.20;99.90;;;;;;4921929;29;20036;-56
2021/08/20 03:01:58;;;;;;;13.82;9.20;;;14.20;99.90;;;;;;4923417;29;20088;-58
2021/08/20 03:04:24;;;;;;;15.23;10.27;;;14.30;99.90;;;;;;4920509;29;20464;-56
2021/08/20 03:06:50;;;;;;;15.13;10.15;;;14.20;99.90;;;;;;4923108;29;20036;-58
2021/08/20 03:09:17;;;;;;;16.33;9.73;;;14.20;99.90;;;;;;4916352;29;20411;-58
2021/08/20 03:11:43;;;;;;;13.93;9.85;;;14.20;99.90;;;;;;4923123;29;20035;-58
2021/08/20 03:14:08;;;;;;;21.98;10.60;;;14.20;99.90;;;;;;4920370;29;20047;-60
2021/08/20 03:16:34;;;;;;;17.48;10.23;;;14.20;99.90;;;;;;4917854;29;20032;-58
2021/08/20 03:19:00;;;;;;;16.50;10.65;;;14.20;99.90;;;;;;4913156;29;20054;-56
2021/08/20 03:21:25;;;;;;;14.90;9.13;;;14.20;99.90;;;;;;4916987;29;20020;-57
2021/08/20 03:23:51;;;;;;;15.18;9.60;;;14.30;99.90;;;;;;4914205;29;20446;-59
2021/08/20 03:26:16;;;;;;;14.75;10.95;;;14.30;99.90;;;;;;4912982;29;20047;-56
2021/08/20 03:28:42;;;;;;;22.30;10.52;;;14.40;99.90;;;;;;4916921;29;20035;-58
2021/08/20 03:31:08;;;;;;;19.65;9.88;;;14.40;99.90;;;;;;4916501;29;20385;-58
2021/08/20 03:33:33;;;;;;;14.32;9.82;;;14.40;99.90;;;;;;4920517;29;20098;-55
2021/08/20 03:35:59;;;;;;;16.92;11.05;;;14.40;99.90;;;;;;4924700;29;20503;-54
2021/08/20 03:38:24;;;;;;;16.65;9.80;;;14.40;99.90;;;;;;4917323;29;20538;-58
2021/08/20 03:40:50;;;;;;;17.60;10.85;;;14.40;99.90;;;;;;4924712;29;20032;-60
2021/08/20 03:43:16;;;;;;;15.77;10.43;;;14.50;99.90;;;;;;4916219;29;20067;-56
2021/08/20 03:45:41;;;;;;;18.45;10.95;;;14.40;99.90;;;;;;4917784;29;20067;-56
2021/08/20 03:48:07;;;;;;;21.67;11.75;;;14.40;99.90;;;;;;4926608;29;20116;-58
2021/08/20 03:50:32;;;;;;;24.23;10.93;;;14.40;99.90;;;;;;4927981;29;20059;-56
2021/08/20 03:52:58;;;;;;;19.23;10.05;;;14.40;99.90;;;;;;4923054;29;20078;-56
2021/08/20 03:55:24;;;;;;;18.25;10.68;;;14.40;99.90;;;;;;4931968;29;20439;-57
2021/08/20 03:57:53;;;;;;;18.90;10.10;;;14.50;99.90;;;;;;4931256;29;20043;-56
2021/08/20 04:00:19;;;;;;;16.95;10.55;;;14.40;99.90;;;;;;4923217;29;20036;-58
2021/08/20 04:02:45;;;;;;;15.85;10.98;;;14.40;99.90;;;;;;4914888;29;20075;-61
2021/08/20 04:05:10;;;;;;;16.85;10.10;;;14.40;99.90;;;;;;4923269;29;20047;-59
2021/08/20 04:07:36;;;;;;;20.65;10.20;;;14.40;99.90;;;;;;4915461;29;20032;-59
2021/08/20 04:10:01;;;;;;;16.17;10.02;;;14.40;99.90;;;;;;4919109;29;20442;-59
2021/08/20 04:12:27;;;;;;;18.25;11.75;;;14.40;99.90;;;;;;4924903;29;20088;-59
2021/08/20 04:14:53;;;;;;;18.15;11.23;;;14.40;99.90;;;;;;4924740;29;20436;-59
2021/08/20 04:17:18;;;;;;;16.40;10.55;;;14.40;99.90;;;;;;4922974;29;20539;-59
2021/08/20 04:19:44;;;;;;;17.73;10.32;;;14.40;99.90;;;;;;4921356;29;20024;-60
2021/08/20 04:22:09;;;;;;;21.25;11.88;;;14.40;99.90;;;;;;4926849;29;20024;-58
2021/08/20 04:24:35;;;;;;;17.02;10.07;;;14.40;99.90;;;;;;4923555;29;20087;-55
2021/08/20 04:27:01;;;;;;;15.60;11.23;;;14.40;99.90;;;;;;4921283;29;20395;-59
2021/08/20 04:29:26;;;;;;;19.63;10.60;;;14.30;99.90;;;;;;4918170;29;20028;-58
2021/08/20 04:31:52;;;;;;;13.77;10.27;;;14.30;99.90;;;;;;4915835;29;20032;-59
2021/08/20 04:34:18;;;;;;;15.38;10.77;;;14.20;99.90;;;;;;4916086;29;20123;-61
2021/08/20 04:36:43;;;;;;;20.73;10.60;;;14.10;99.90;;;;;;4920345;29;20083;-60
2021/08/20 04:39:09;;;;;;;20.10;10.80;;;14.00;99.90;;;;;;4916983;29;20028;-57
2021/08/20 04:41:34;;;;;;;14.32;11.23;;;14.00;99.90;;;;;;4915613;29;20514;-58
2021/08/20 04:44:00;;;;;;;13.40;11.15;;;13.90;99.90;;;;;;4915977;29;20020;-60
2021/08/20 04:46:26;;;;;;;21.20;11.27;;;13.80;99.90;;;;;;4913761;29;20038;-58
2021/08/20 04:48:51;;;;;;;20.38;12.00;;;13.80;99.90;;;;;;4915410;29;20471;-55
2021/08/20 04:51:17;;;;;;;18.30;11.10;;;13.80;99.90;;;;;;4917648;29;20036;-60
2021/08/20 04:53:43;;;;;;;19.42;12.05;;;13.70;99.90;;;;;;4926130;29;20128;-58
2021/08/20 04:56:08;;;;;;;19.77;11.43;;;13.70;99.90;;;;;;4921096;29;20495;-59
2021/08/20 04:58:35;;;;;;;17.70;11.13;;;13.80;99.90;;;;;;4923753;29;20044;-60
2021/08/20 05:01:02;;;;;;;21.00;10.73;;;13.90;99.90;;;;;;4917781;29;20090;-60
2021/08/20 05:03:28;;;;;;;17.33;11.57;;;14.00;99.90;;;;;;4926941;29;20106;-58
2021/08/20 05:05:54;;;;;;;17.73;11.55;;;14.10;99.90;;;;;;4923870;29;20555;-58
2021/08/20 05:08:20;;;;;;;24.63;12.82;;;14.20;99.90;;;;;;4919341;29;20447;-59
2021/08/20 05:10:45;;;;;;;28.23;11.43;;;14.40;99.90;;;;;;4919754;29;20566;-58
2021/08/20 05:13:11;;;;;;;20.98;11.68;;;14.50;99.90;;;;;;4922183;29;20039;-58
2021/08/20 05:15:36;;;;;;;23.45;12.45;;;14.60;99.90;;;;;;4921292;29;20120;-58
2021/08/20 05:18:02;;;;;;;16.60;9.93;;;14.60;99.90;;;;;;4922473;29;20063;-57
2021/08/20 05:20:29;;;;;;;20.85;11.73;;;14.70;99.90;;;;;;4928055;29;20028;-60
2021/08/20 05:22:55;;;;;;;19.58;10.60;;;14.80;99.90;;;;;;4910344;29;20420;-56
2021/08/20 05:25:22;;;;;;;18.08;9.95;;;14.90;99.90;;;;;;4921074;29;20447;-59
2021/08/20 05:27:49;;;;;;;16.42;9.65;;;15.00;99.90;;;;;;4924075;29;20024;-58
2021/08/20 05:30:15;;;;;;;13.93;9.82;;;15.10;99.90;;;;;;4923880;29;20179;-59
2021/08/20 05:32:41;;;;;;;22.77;11.98;;;15.40;99.90;;;;;;4919457;29;20039;-57
2021/08/20 05:35:09;;;;;;;18.58;9.75;;;15.90;99.90;;;;;;4924430;29;20419;-60
2021/08/20 05:37:35;;;;;;;13.18;7.00;;;16.50;99.90;;;;;;4927423;29;20031;-53
2021/08/20 05:40:03;;;;;;;11.60;6.45;;;17.20;99.90;;;;;;4928298;29;20023;-59
2021/08/20 05:42:29;;;;;;;11.98;6.28;;;17.90;99.90;;;;;;4914273;29;21706;-59
2021/08/20 05:44:55;;;;;;;12.45;6.68;;;18.50;99.90;;;;;;4925904;29;20111;-60
2021/08/20 05:47:21;;;;;;;13.15;6.78;;;18.90;99.90;;;;;;4914688;29;20051;-56
2021/08/20 05:49:47;;;;;;;13.35;8.45;;;18.80;99.90;;;;;;4925386;29;20032;-56
2021/08/20 05:52:12;;;;;;;13.18;7.32;;;18.50;99.90;;;;;;4922090;29;20537;-57
2021/08/20 05:54:38;;;;;;;14.23;8.10;;;18.10;99.90;;;;;;4926701;29;20201;-58
2021/08/20 05:57:04;;;;;;;14.50;7.63;;;17.70;99.90;;;;;;4928516;29;20615;-58
2021/08/20 05:59:30;;;;;;;11.88;7.50;;;17.30;99.90;;;;;;4918443;29;20407;-57
2021/08/20 06:01:55;;;;;;;22.67;8.95;;;17.30;99.90;;;;;;4926592;29;20087;-60
2021/08/20 06:04:21;;;;;;;12.63;8.20;;;17.00;99.90;;;;;;4915871;29;20040;-59
2021/08/20 06:06:46;;;;;;;12.75;8.45;;;16.90;99.90;;;;;;4914212;29;20036;-60
2021/08/20 06:09:12;;;;;;;16.52;7.90;;;16.80;99.90;;;;;;4921466;29;20032;-58
2021/08/20 06:11:37;;;;;;;15.02;8.55;;;16.70;99.90;;;;;;4926183;29;20063;-60
2021/08/20 06:14:03;;;;;;;12.73;8.38;;;16.60;99.90;;;;;;4921449;29;20539;-59
2021/08/20 06:16:28;;;;;;;15.75;9.35;;;16.80;99.90;;;;;;4914076;29;20032;-60
2021/08/20 06:18:54;;;;;;;13.63;8.13;;;17.00;99.90;;;;;;4918207;29;20060;-58
2021/08/20 06:21:20;;;;;;;12.50;8.43;;;17.30;99.90;;;;;;4923357;29;20492;-59
2021/08/20 06:23:45;;;;;;;12.57;8.30;;;17.50;99.90;;;;;;4921799;29;20028;-59
2021/08/20 06:26:11;;;;;;;16.23;8.40;;;17.60;99.90;;;;;;4919696;29;20522;-59
2021/08/20 06:28:37;;;;;;;11.55;8.23;;;17.60;99.90;;;;;;4921745;29;20032;-61
2021/08/20 06:31:03;;;;;;;13.15;8.50;;;17.50;99.90;;;;;;4915162;29;20028;-58
2021/08/20 06:33:30;;;;;;;14.20;8.23;;;17.40;99.90;;;;;;4914294;29;20024;-61
2021/08/20 06:35:56;;;;;;;11.25;7.53;;;17.20;99.90;;;;;;4913285;29;20028;-56
2021/08/20 06:38:21;;;;;;;14.30;8.50;;;17.30;99.90;;;;;;4914124;29;20099;-58
2021/08/20 06:40:47;;;;;;;11.02;7.85;;;17.40;99.90;;;;;;4915441;29;20028;-59
2021/08/20 06:43:13;;;;;;;14.98;7.95;;;17.60;99.90;;;;;;4916159;29;20028;-58
2021/08/20 06:45:38;;;;;;;14.60;7.95;;;17.60;99.90;;;;;;4918348;29;20850;-60
2021/08/20 06:48:04;;;;;;;14.70;7.88;;;17.50;99.90;;;;;;4913863;29;20032;-60
2021/08/20 06:50:30;;;;;;;13.00;7.05;;;17.70;99.90;;;;;;4924939;29;20066;-57
2021/08/20 06:52:55;;;;;;;13.63;6.72;;;17.90;99.90;;;;;;4921705;29;20071;-60
2021/08/20 06:55:22;;;;;;;9.00;5.78;;;18.20;99.90;;;;;;4917320;29;20032;-58
2021/08/20 06:57:47;;;;;;;8.57;6.13;;;19.00;99.90;;;;;;4925159;29;20839;-60
2021/08/20 07:00:13;;;;;;;13.15;6.93;;;20.10;99.90;;;;;;4894121;28;20080;-59
2021/08/20 07:02:43;;;;;;;11.68;5.97;;;20.90;99.90;;;;;;4915768;29;20127;-59
2021/08/20 07:05:10;;;;;;;10.40;5.53;;;21.10;99.90;;;;;;4921959;29;20390;-56
2021/08/20 07:07:36;;;;;;;7.88;5.07;;;21.60;99.90;;;;;;4920814;29;20511;-58
2021/08/20 07:10:02;;;;;;;7.60;5.35;;;22.30;99.90;;;;;;4925436;29;20072;-57
2021/08/20 07:12:27;;;;;;;6.43;4.13;;;23.80;99.90;;;;;;4924506;29;20082;-60
2021/08/20 07:14:53;;;;;;;10.77;4.38;;;25.70;97.00;;;;;;4919515;29;20035;-60
2021/08/20 07:17:18;;;;;;;7.88;4.50;;;25.90;95.40;;;;;;4918566;29;20024;-55
2021/08/20 07:19:44;;;;;;;9.38;5.30;;;26.30;95.10;;;;;;4918018;29;20032;-60
2021/08/20 07:22:09;;;;;;;7.18;4.88;;;26.00;95.20;;;;;;4926991;29;20020;-58
2021/08/20 07:24:36;;;;;;;7.68;5.43;;;25.60;94.70;;;;;;4918332;29;20035;-59
2021/08/20 07:27:02;;;;;;;7.68;4.70;;;24.70;96.20;;;;;;4919885;29;20106;-61
2021/08/20 07:29:28;;;;;;;9.82;5.28;;;23.90;97.60;;;;;;4924499;29;20129;-57
2021/08/20 07:31:53;;;;;;;8.77;5.50;;;23.60;97.60;;;;;;4922465;29;20563;-61
2021/08/20 07:34:19;;;;;;;7.57;5.95;;;22.90;98.30;;;;;;4922030;29;20606;-61
2021/08/20 07:36:44;;;;;;;7.47;5.22;;;22.30;99.40;;;;;;4922356;29;20046;-58
2021/08/20 07:39:10;;;;;;;8.80;5.68;;;22.30;99.80;;;;;;4928270;29;20055;-60
2021/08/20 07:41:36;;;;;;;11.60;5.90;;;22.40;99.70;;;;;;4922774;29;20033;-60
2021/08/20 07:44:01;;;;;;;8.88;6.07;;;22.30;99.70;;;;;;4929852;29;20027;-61
2021/08/20 07:46:27;;;;;;;7.68;6.10;;;21.80;99.90;;;;;;4926788;29;20024;-56
2021/08/20 07:48:52;;;;;;;8.30;6.07;;;21.70;99.90;;;;;;4922064;29;20042;-59
2021/08/20 07:51:18;;;;;;;8.25;5.80;;;21.80;99.90;;;;;;4927122;29;20031;-59
2021/08/20 07:53:43;;;;;;;10.02;6.03;;;22.70;99.90;;;;;;4915854;29;20040;-58
2021/08/20 07:56:09;;;;;;;9.73;6.57;;;23.60;98.40;;;;;;4921273;29;20065;-51
2021/08/20 07:58:34;;;;;;;9.35;6.45;;;23.90;98.40;;;;;;4924182;29;20039;-50
2021/08/20 08:01:00;;;;;;;9.48;6.63;;;23.40;98.40;;;;;;4907148;29;20044;-59
2021/08/20 08:03:26;;;;;;;8.98;7.55;;;23.40;99.20;;;;;;4915561;29;20024;-59
2021/08/20 08:05:51;;;;;;;8.60;7.03;;;23.90;98.10;;;;;;4928608;29;20024;-59
2021/08/20 08:08:17;;;;;;;8.95;6.57;;;23.90;97.60;;;;;;4928756;29;20079;-61
2021/08/20 08:10:43;;;;;;;10.75;7.28;;;23.30;97.90;;;;;;4926843;29;20515;-61
2021/08/20 08:13:09;;;;;;;10.60;7.40;;;22.30;99.20;;;;;;4924570;29;20403;-60
2021/08/20 08:15:35;;;;;;;8.20;7.03;;;21.50;99.90;;;;;;4919903;29;20040;-53
2021/08/20 08:18:00;;;;;;;14.32;7.57;;;21.30;99.90;;;;;;4913515;29;20035;-59
2021/08/20 08:20:26;;;;;;;8.57;6.80;;;21.30;99.90;;;;;;4917722;29;20039;-59
2021/08/20 08:22:52;;;;;;;11.98;6.68;;;21.10;99.90;;;;;;4916227;29;20032;-57
2021/08/20 08:25:17;;;;;;;11.45;7.47;;;21.40;99.90;;;;;;4923552;29;20028;-58
2021/08/20 08:27:50;;;;;;;10.65;7.20;;;21.60;99.90;;;;;;4926814;29;20032;-59
2021/08/20 08:30:16;;;;;;;7.47;6.35;;;21.30;99.90;;;;;;4927043;29;20032;-61
2021/08/20 08:32:41;;;;;;;7.72;6.13;;;21.50;99.90;;;;;;4921479;29;20087;-57
2021/08/20 08:35:07;;;;;;;7.20;6.28;;;21.60;99.90;;;;;;4922316;29;20043;-62
2021/08/20 08:37:33;;;;;;;7.78;5.90;;;21.80;99.90;;;;;;4916964;29;20044;-55
2021/08/20 08:39:58;;;;;;;11.43;6.25;;;22.30;99.90;;;;;;4927124;29;20420;-59
2021/08/20 08:42:24;;;;;;;7.28;5.35;;;22.80;99.90;;;;;;4917912;29;20025;-60
2021/08/20 08:44:50;;;;;;;6.25;5.65;;;24.10;99.90;;;;;;4924669;29;20035;-60
2021/08/20 08:47:16;;;;;;;8.52;5.35;;;25.10;97.70;;;;;;4921452;29;20043;-58
2021/08/20 08:49:43;;;;;;;11.07;5.25;;;25.80;95.70;;;;;;4923633;29;20024;-59
2021/08/20 08:52:09;;;;;;;9.15;5.68;;;25.00;95.20;;;;;;4920367;29;20052;-58
2021/08/20 08:54:34;;;;;;;10.65;4.63;;;25.00;96.10;;;;;;4915446;29;20055;-55
2021/08/20 08:57:00;;;;;;;6.22;4.65;;;25.50;96.30;;;;;;4915597;29;20044;-58
2021/08/20 08:59:25;;;;;;;8.63;5.40;;;26.00;94.80;;;;;;4913726;29;20059;-57
2021/08/20 09:01:51;;;;;;;9.23;5.47;;;25.40;95.20;;;;;;4908552;28;20123;-58
2021/08/20 09:04:23;;;;;;;9.80;5.28;;;25.70;94.90;;;;;;4913479;29;20032;-60
2021/08/20 09:06:54;;;;;;;8.30;5.27;;;25.10;95.40;;;;;;4928739;29;20057;-59
2021/08/20 09:09:24;;;;;;;10.27;6.22;;;24.20;96.40;;;;;;4913818;29;20280;-60
2021/08/20 09:11:58;;;;;;;8.23;6.07;;;23.50;97.30;;;;;;4912138;29;20039;-56
2021/08/20 09:14:32;;;;;;;8.43;5.90;;;22.70;98.90;;;;;;4882790;29;20054;-56
2021/08/20 09:16:59;;;;;;;6.80;6.10;;;22.70;99.20;;;;;;4914743;29;20135;-60
2021/08/20 09:19:27;;;;;;;9.40;6.28;;;23.20;98.40;;;;;;4923760;29;20019;-60
2021/08/20 09:21:56;;;;;;;7.35;6.40;;;24.20;98.80;;;;;;4924991;29;20030;-61
2021/08/20 09:24:35;;;;;;;12.68;5.95;;;24.90;96.40;;;;;;4921714;29;20120;-62
2021/08/20 09:27:18;;;;;;;8.85;6.38;;;25.10;95.50;;;;;;4916207;29;20403;-59
2021/08/20 09:30:04;;;;;;;11.93;6.75;;;24.70;96.40;;;;;;4918399;29;20110;-59
2021/08/20 09:32:30;;;;;;;10.05;7.40;;;24.30;96.80;;;;;;4913826;29;20087;-56
2021/08/20 09:34:58;;;;;;;9.80;8.27;;;23.60;97.00;;;;;;4922128;29;20036;-61
2021/08/20 09:37:27;;;;;;;8.07;7.20;;;23.00;97.80;;;;;;4916737;29;20725;-59
2021/08/20 09:40:00;;;;;;;8.55;7.47;;;22.80;98.40;;;;;;4916337;29;20070;-60
2021/08/20 09:42:26;;;;;;;11.02;6.85;;;22.50;99.00;;;;;;4918707;29;20028;-59
2021/08/20 09:45:10;;;;;;;12.02;8.65;;;23.00;99.20;;;;;;4913438;29;20071;-60
2021/08/20 09:47:44;;;;;;;11.15;7.20;;;23.20;97.90;;;;;;4916413;29;20107;-59
2021/08/20 09:50:10;;;;;;;10.73;7.53;;;23.50;98.40;;;;;;4923771;29;20098;-60
2021/08/20 09:52:36;;;;;;;10.52;7.15;;;24.00;98.10;;;;;;4920135;29;20024;-61
2021/08/20 09:55:01;;;;;;;8.45;7.47;;;23.90;97.80;;;;;;4912811;29;20082;-59
2021/08/20 09:57:28;;;;;;;9.60;7.70;;;24.20;97.50;;;;;;4916117;29;20028;-60
2021/08/20 09:59:55;;;;;;;8.98;7.57;;;24.10;97.40;;;;;;4914880;29;20031;-61
2021/08/20 10:02:27;;;;;;;10.63;7.68;;;23.90;97.10;;;;;;4908754;28;20048;-58
2021/08/20 10:04:57;;;;;;;11.27;8.93;;;23.70;97.60;;;;;;4910340;29;20116;-57
2021/08/20 10:07:25;;;;;;;9.07;6.68;;;23.70;98.20;;;;;;4910978;29;20036;-60
2021/08/20 10:09:52;;;;;;;11.77;6.90;;;23.80;98.00;;;;;;4916741;29;20122;-58
2021/08/20 10:12:20;;;;;;;7.15;5.93;;;23.50;98.10;;;;;;4918699;29;20034;-59
2021/08/20 10:14:46;;;;;;;10.70;6.40;;;23.40;98.50;;;;;;4919530;29;20040;-60
2021/08/20 10:17:13;;;;;;;9.48;5.75;;;23.50;99.20;;;;;;4918809;29;20169;-57
2021/08/20 10:19:41;;;;;;;8.77;5.97;;;23.40;98.80;;;;;;4924405;29;20027;-58
2021/08/20 10:22:07;;;;;;;6.95;5.32;;;23.30;98.70;;;;;;4924468;29;20034;-61
2021/08/20 10:24:33;;;;;;;7.03;5.25;;;22.90;99.40;;;;;;4925706;29;20111;-57
2021/08/20 10:27:02;;;;;;;7.15;4.50;;;22.60;99.90;;;;;;4911334;29;20103;-56
2021/08/20 10:29:31;;;;;;;11.60;6.30;;;22.30;99.90;;;;;;4913309;29;20024;-59
2021/08/20 10:31:58;;;;;;;9.93;6.60;;;22.20;99.90;;;;;;4911947;29;20048;-58
2021/08/20 10:34:29;;;;;;;8.20;5.97;;;21.90;99.90;;;;;;4921599;29;20444;-58
2021/08/20 10:37:08;;;;;;;9.30;6.15;;;21.70;99.90;;;;;;4914613;29;20035;-58
2021/08/20 10:39:34;;;;;;;11.80;6.05;;;21.60;99.90;;;;;;4920016;29;20032;-60
2021/08/20 10:42:15;;;;;;;11.43;5.70;;;21.70;99.90;;;;;;4915525;29;20024;-60
2021/08/20 10:44:45;;;;;;;6.78;5.90;;;21.70;99.90;;;;;;4918496;29;20387;-60
2021/08/20 10:47:21;;;;;;;10.27;6.07;;;21.60;99.90;;;;;;4910062;29;20115;-60
2021/08/20 10:49:48;;;;;;;10.32;6.22;;;21.60;99.90;;;;;;4940105;29;20032;-60
2021/08/20 10:52:28;;;;;;;9.63;6.82;;;21.10;99.90;;;;;;4912911;28;20075;-59
2021/08/20 10:54:54;;;;;;;8.80;6.38;;;20.80;99.90;;;;;;4929289;29;20035;-60
2021/08/20 10:57:35;;;;;;;8.50;6.70;;;20.40;99.90;;;;;;4916804;29;20039;-59
2021/08/20 11:00:02;;;;;;;11.32;6.25;;;20.20;99.90;;;;;;4906785;29;20491;-60
2021/08/20 11:02:27;;;;;;;6.60;5.85;;;20.10;99.90;;;;;;4912762;28;20055;-60
2021/08/20 11:05:00;;;;;;;8.32;5.03;;;19.90;99.90;;;;;;4923379;29;20020;-59
2021/08/20 11:07:51;;;;;;;6.15;4.93;;;20.10;99.90;;;;;;4925402;29;20108;-58
2021/08/20 11:10:17;;;;;;;7.28;4.10;;;20.10;99.90;;;;;;4911159;29;20440;-60
2021/08/20 11:12:47;;;;;;;6.75;4.60;;;20.10;99.90;;;;;;4920717;29;20028;-60
2021/08/20 11:15:22;;;;;;;3.92;3.13;;;20.50;99.90;;;;;;4920745;29;20067;-60
2021/08/20 11:17:48;;;;;;;4.35;3.58;;;20.80;99.90;;;;;;4921851;29;20508;-57
2021/08/20 11:20:22;;;;;;;6.03;3.53;;;21.30;99.90;;;;;;4926743;29;20028;-60
2021/08/20 11:23:09;;;;;;;4.68;3.88;;;22.00;99.90;;;;;;4927948;29;20073;-60
2021/08/20 11:25:47;;;;;;;5.18;3.63;;;21.80;99.90;;;;;;4921566;29;20024;-59
2021/08/20 11:28:17;;;;;;;4.65;3.10;;;22.00;99.90;;;;;;4921755;29;20031;-60
2021/08/20 11:30:44;;;;;;;5.43;3.10;;;22.20;99.90;;;;;;4913508;29;20500;-60
2021/08/20 11:33:14;;;;;;;4.35;2.83;;;22.30;99.90;;;;;;4906826;29;20020;-60
2021/08/20 11:35:42;;;;;;;4.60;2.88;;;22.40;99.90;;;;;;4913087;29;20168;-58
2021/08/20 11:38:08;;;;;;;2.92;2.63;;;22.70;99.90;;;;;;4912804;29;20436;-53
2021/08/20 11:40:49;;;;;;;4.38;3.10;;;22.70;99.90;;;;;;4906086;29;20036;-55
2021/08/20 11:43:15;;;;;;;4.07;2.90;;;22.40;99.90;;;;;;4903854;29;20035;-60
2021/08/20 11:45:41;;;;;;;4.15;3.47;;;22.80;99.90;;;;;;4910599;29;20089;-57
2021/08/20 11:48:06;;;;;;;4.47;2.35;;;23.20;99.90;;;;;;4904864;29;20111;-59
2021/08/20 11:50:34;;;;;;;4.00;2.65;;;23.40;99.90;;;;;;4910355;29;20452;-58
2021/08/20 11:53:00;;;;;;;3.60;2.03;;;23.40;99.90;;;;;;4903390;29;20059;-55
2021/08/20 11:55:25;;;;;;;2.15;1.90;;;24.10;99.90;;;;;;4915695;29;20853;-60
2021/08/20 11:57:51;;;;;;;3.42;2.38;;;24.40;99.90;;;;;;4919069;29;20482;-50
2021/08/20 12:00:17;;;;;;;3.45;2.58;;;24.60;99.90;;;;;;4931448;29;20024;-51
2021/08/20 12:02:43;;;;;;;6.53;2.67;;;24.70;99.90;;;;;;4919145;29;20028;-53
2021/08/20 12:05:12;;;;;;;3.95;2.72;;;24.80;99.90;;;;;;4898411;29;20108;-52
2021/08/20 12:07:37;;;;;;;8.43;2.42;;;24.70;99.90;;;;;;4916466;29;20040;-60
2021/08/20 12:10:03;;;;;;;6.70;2.40;;;24.40;99.90;;;;;;4919625;29;20028;-59
2021/08/20 12:12:33;;;;;;;3.00;2.42;;;23.90;99.90;;;;;;4919786;29;20068;-61
2021/08/20 12:14:59;;;;;;;2.60;2.30;;;23.70;99.90;;;;;;4915420;29;20028;-58
2021/08/20 12:17:28;;;;;;;2.95;2.50;;;23.40;99.90;;;;;;4914759;29;20108;-54
2021/08/20 12:19:56;;;;;;;2.67;2.38;;;23.40;99.90;;;;;;4883622;29;20817;-59
2021/08/20 12:22:32;;;;;;;3.83;2.28;;;23.20;99.90;;;;;;4906817;29;20025;-58
2021/08/20 12:24:57;;;;;;;3.60;2.33;;;23.30;99.90;;;;;;4912914;29;20091;-60
2021/08/20 12:27:36;;;;;;;3.15;1.95;;;23.20;99.90;;;;;;4910456;29;20480;-58
2021/08/20 12:30:02;;;;;;;2.30;1.95;;;23.60;99.90;;;;;;4913946;29;20043;-53
2021/08/20 12:32:30;;;;;;;3.13;1.73;;;23.80;99.90;;;;;;4915226;29;20400;-51
2021/08/20 12:35:22;;;;;;;4.47;2.20;;;24.00;99.90;;;;;;4914030;29;20403;-57
2021/08/20 12:38:00;;;;;;;3.53;2.50;;;23.70;99.90;;;;;;4916272;29;20075;-57